createdAt,value
2023-02-04T00:00:41.940Z,100.00
2023-02-04T00:03:12.010Z,100.00
2023-02-04T00:05:40.740Z,100.00
2023-02-04T00:08:12.294Z,100.00
2023-02-04T00:10:41.057Z,100.00
2023-02-04T00:13:09.258Z,100.00
2023-02-04T00:15:37.406Z,100.00
2023-02-04T00:18:05.772Z,100.00
2023-02-04T00:20:35.441Z,100.00
2023-02-04T00:23:04.230Z,100.00
2023-02-04T00:25:32.435Z,100.00
2023-02-04T00:28:00.654Z,100.00
2023-02-04T00:30:29.823Z,100.00
2023-02-04T00:32:58.154Z,100.00
2023-02-04T00:35:26.844Z,100.00
2023-02-04T00:37:56.682Z,100.00
2023-02-04T00:40:24.827Z,100.00
2023-02-04T00:42:53.000Z,100.00
2023-02-04T00:45:21.499Z,100.00
2023-02-04T00:47:49.691Z,100.00
2023-02-04T00:50:19.029Z,100.00
2023-02-04T00:52:47.270Z,100.00
2023-02-04T00:55:18.235Z,100.00
2023-02-04T00:57:47.675Z,100.00
2023-02-04T01:00:18.867Z,100.00
2023-02-04T01:05:39.575Z,99.51
2023-02-04T01:08:07.762Z,98.58
2023-02-04T01:10:37.945Z,98.78
2023-02-04T01:13:08.337Z,97.96
2023-02-04T01:15:36.798Z,97.98
2023-02-04T01:18:05.095Z,97.17
2023-02-04T01:20:33.570Z,96.68
2023-02-04T01:23:01.727Z,96.22
2023-02-04T01:25:29.846Z,94.96
2023-02-04T01:27:59.493Z,95.96
2023-02-04T01:30:27.728Z,95.31
2023-02-04T01:32:57.321Z,97.00
2023-02-04T01:35:25.520Z,97.20
2023-02-04T01:37:53.744Z,96.17
2023-02-04T01:40:22.231Z,97.96
2023-02-04T01:42:50.423Z,97.75
2023-02-04T01:45:20.288Z,97.25
2023-02-04T01:47:49.121Z,96.94
2023-02-04T01:50:19.157Z,97.04
2023-02-04T01:52:48.187Z,96.77
2023-02-04T01:55:23.798Z,96.08
2023-02-04T01:57:53.298Z,96.33
2023-02-04T02:00:27.949Z,97.35
2023-02-04T02:02:56.539Z,95.72
2023-02-04T02:05:28.976Z,96.92
2023-02-04T02:08:01.951Z,96.26
2023-02-04T02:10:31.449Z,96.17
2023-02-04T02:13:00.567Z,95.46
2023-02-04T02:15:55.098Z,96.09
2023-02-04T02:18:25.246Z,96.46
2023-02-04T02:20:53.796Z,95.31
2023-02-04T02:23:44.078Z,95.08
2023-02-04T02:26:12.848Z,94.83
2023-02-04T02:28:41.372Z,94.65
2023-02-04T02:31:10.227Z,94.93
2023-02-04T02:33:38.644Z,94.31
2023-02-04T02:36:07.724Z,95.56
2023-02-04T02:38:35.904Z,95.84
2023-02-04T02:41:08.945Z,94.92
2023-02-04T02:43:38.163Z,95.44
2023-02-04T02:46:07.046Z,96.13
2023-02-04T02:48:35.307Z,96.14
2023-02-04T02:51:03.507Z,96.24
2023-02-04T02:53:33.146Z,97.06
2023-02-04T02:56:04.590Z,96.61
2023-02-04T02:58:37.303Z,96.98
2023-02-04T03:01:08.772Z,97.07
2023-02-04T03:03:43.014Z,96.48
2023-02-04T03:06:16.300Z,97.68
2023-02-04T03:08:45.976Z,96.09
2023-02-04T03:11:14.146Z,98.21
2023-02-04T03:13:44.605Z,98.11
2023-02-04T03:16:12.898Z,97.97
2023-02-04T03:18:41.341Z,97.91
2023-02-04T03:21:13.458Z,98.74
2023-02-04T03:23:41.928Z,97.18
2023-02-04T03:26:10.223Z,97.41
2023-02-04T03:28:44.535Z,97.35
2023-02-04T03:31:13.447Z,97.42
2023-02-04T03:33:42.577Z,97.75
2023-02-04T03:36:11.136Z,97.46
2023-02-04T03:38:39.707Z,96.38
2023-02-04T03:41:07.876Z,95.76
2023-02-04T03:43:36.104Z,95.98
2023-02-04T03:46:06.217Z,95.96
2023-02-04T03:48:34.420Z,96.86
2023-02-04T03:51:02.552Z,96.24
2023-02-04T03:53:30.779Z,95.60
2023-02-04T03:55:59.017Z,95.38
2023-02-04T03:58:27.655Z,96.73
2023-02-04T04:00:55.858Z,96.90
2023-02-04T04:03:25.447Z,96.07
2023-02-04T04:05:53.631Z,95.71
2023-02-04T04:08:21.847Z,95.63
2023-02-04T04:10:50.025Z,95.78
2023-02-04T04:13:18.278Z,96.16
2023-02-04T04:15:46.502Z,94.99
2023-02-04T04:18:14.717Z,94.53
2023-02-04T04:20:44.254Z,94.92
2023-02-04T04:23:12.477Z,96.12
2023-02-04T04:25:40.695Z,96.66
2023-02-04T04:28:08.966Z,96.03
2023-02-04T04:30:37.177Z,95.24
2023-02-04T04:33:05.477Z,95.75
2023-02-04T04:35:34.824Z,96.52
2023-02-04T04:38:04.829Z,95.52
2023-02-04T04:40:33.684Z,94.56
2023-02-04T04:43:02.045Z,95.26
2023-02-04T04:45:30.337Z,94.87
2023-02-04T04:47:58.524Z,94.18
2023-02-04T04:50:27.054Z,94.52
2023-02-04T04:52:55.250Z,94.40
2023-02-04T04:55:24.813Z,93.90
2023-02-04T04:57:53.043Z,94.51
2023-02-04T05:00:22.878Z,93.88
2023-02-04T05:02:51.059Z,93.45
2023-02-04T05:05:21.501Z,93.45
2023-02-04T05:07:49.747Z,92.38
2023-02-04T05:10:19.102Z,92.15
2023-02-04T05:12:48.682Z,91.59
2023-02-04T05:15:17.073Z,91.94
2023-02-04T05:17:45.320Z,92.18
2023-02-04T05:20:13.813Z,93.00
2023-02-04T05:22:42.061Z,92.97
2023-02-04T05:25:10.805Z,92.11
2023-02-04T05:27:39.074Z,92.54
2023-02-04T05:30:11.415Z,92.00
2023-02-04T05:32:39.636Z,90.89
2023-02-04T05:35:08.801Z,91.25
2023-02-04T05:37:37.652Z,91.42
2023-02-04T05:40:07.377Z,92.02
2023-02-04T05:42:35.608Z,91.37
2023-02-04T05:45:03.789Z,92.52
2023-02-04T05:47:33.514Z,92.09
2023-02-04T05:50:01.816Z,92.58
2023-02-04T05:52:30.352Z,92.01
2023-02-04T05:54:58.548Z,92.57
2023-02-04T05:57:26.834Z,91.88
2023-02-04T05:59:55.141Z,91.97
2023-02-04T06:02:23.314Z,91.11
2023-02-04T06:04:52.873Z,91.08
2023-02-04T06:07:21.164Z,91.10
2023-02-04T06:09:49.313Z,91.72
2023-02-04T06:12:17.624Z,90.31
2023-02-04T06:14:45.795Z,90.88
2023-02-04T06:17:14.038Z,91.05
2023-02-04T06:19:42.242Z,90.26
2023-02-04T06:22:11.842Z,91.17
2023-02-04T06:24:40.062Z,91.17
2023-02-04T06:27:08.262Z,89.96
2023-02-04T06:29:36.754Z,90.24
2023-02-04T06:32:05.313Z,90.40
2023-02-04T06:34:33.503Z,89.07
2023-02-04T06:37:01.751Z,90.35
2023-02-04T06:39:31.384Z,90.59
2023-02-04T06:41:59.785Z,89.59
2023-02-04T06:44:27.997Z,89.60
2023-02-04T06:46:56.221Z,90.23
2023-02-04T06:49:25.116Z,89.79
2023-02-04T06:51:55.223Z,89.02
2023-02-04T06:54:24.297Z,89.84
2023-02-04T06:56:53.937Z,89.22
2023-02-04T06:59:22.211Z,90.22
2023-02-04T07:01:58.188Z,89.94
2023-02-04T07:04:31.454Z,89.07
2023-02-04T07:07:34.185Z,90.93
2023-02-04T07:10:02.838Z,90.55
2023-02-04T07:12:32.467Z,89.99
2023-02-04T07:15:01.463Z,90.06
2023-02-04T07:17:29.682Z,89.07
2023-02-04T07:19:57.878Z,88.60
2023-02-04T07:22:26.092Z,88.77
2023-02-04T07:24:54.296Z,89.04
2023-02-04T07:27:22.566Z,88.08
2023-02-04T07:29:52.122Z,88.93
2023-02-04T07:32:20.424Z,87.69
2023-02-04T07:34:48.883Z,88.86
2023-02-04T07:37:17.104Z,89.61
2023-02-04T07:39:45.320Z,91.73
2023-02-04T07:42:13.486Z,91.08
2023-02-04T07:44:53.152Z,92.58
2023-02-04T07:47:21.362Z,91.69
2023-02-04T07:49:49.669Z,91.23
2023-02-04T07:52:17.818Z,89.33
2023-02-04T07:54:46.005Z,87.76
2023-02-04T07:57:14.590Z,87.94
2023-02-04T07:59:42.790Z,88.17
2023-02-04T08:02:12.740Z,87.21
2023-02-04T08:04:41.281Z,87.29
2023-02-04T08:07:09.452Z,88.43
2023-02-04T08:09:37.624Z,87.43
2023-02-04T08:12:06.694Z,88.02
2023-02-04T08:14:34.909Z,88.25
2023-02-04T08:17:03.166Z,87.73
2023-02-04T08:19:32.719Z,89.22
2023-02-04T08:22:00.907Z,89.61
2023-02-04T08:24:29.125Z,89.85
2023-02-04T08:26:58.327Z,89.63
2023-02-04T08:29:26.808Z,91.07
2023-02-04T08:31:55.271Z,91.44
2023-02-04T08:34:23.681Z,90.81
2023-02-04T08:36:53.223Z,90.53
2023-02-04T08:39:21.512Z,91.40
2023-02-04T08:41:51.337Z,90.12
2023-02-04T08:44:19.571Z,90.75
2023-02-04T08:46:47.878Z,91.35
2023-02-04T08:49:16.134Z,90.59
2023-02-04T08:51:44.429Z,90.67
2023-02-04T08:54:19.215Z,91.00
2023-02-04T08:56:47.408Z,91.51
2023-02-04T08:59:15.622Z,92.39
2023-02-04T09:01:49.658Z,90.80
2023-02-04T09:07:35.945Z,90.01
2023-02-04T09:10:05.951Z,91.08
2023-02-04T09:12:34.977Z,90.38
2023-02-04T09:15:03.196Z,90.82
2023-02-04T09:17:31.405Z,91.03
2023-02-04T09:19:59.959Z,89.86
2023-02-04T09:22:28.238Z,89.38
2023-02-04T09:24:56.509Z,89.19
2023-02-04T09:27:26.052Z,90.04
2023-02-04T09:29:54.239Z,90.12
2023-02-04T09:32:22.534Z,88.98
2023-02-04T09:34:50.773Z,88.73
2023-02-04T09:37:19.054Z,89.33
2023-02-04T09:39:47.233Z,89.35
2023-02-04T09:42:35.803Z,89.42
2023-02-04T09:45:04.295Z,86.72
2023-02-04T09:47:32.943Z,86.83
2023-02-04T09:50:01.214Z,85.81
2023-02-04T09:52:30.317Z,85.33
2023-02-04T09:54:58.513Z,87.38
2023-02-04T09:57:30.343Z,85.75
2023-02-04T09:59:58.546Z,87.01
2023-02-04T10:02:38.234Z,86.09
2023-02-04T10:05:10.913Z,86.19
2023-02-04T10:07:39.310Z,86.16
2023-02-04T10:10:07.994Z,87.00
2023-02-04T10:12:37.708Z,84.36
2023-02-04T10:15:11.022Z,84.84
2023-02-04T10:17:39.327Z,84.98
2023-02-04T10:20:13.834Z,84.19
2023-02-04T10:22:42.097Z,84.30
2023-02-04T10:25:15.227Z,85.21
2023-02-04T10:27:52.090Z,88.22
2023-02-04T10:30:22.738Z,88.53
2023-02-04T10:32:51.511Z,87.21
2023-02-04T10:35:22.098Z,87.14
2023-02-04T10:38:04.953Z,87.48
2023-02-04T10:40:35.474Z,86.94
2023-02-04T10:43:11.563Z,86.92
2023-02-04T10:45:40.282Z,86.83
2023-02-04T10:48:16.956Z,85.47
2023-02-04T10:50:46.606Z,85.63
2023-02-04T10:53:34.881Z,85.86
2023-02-04T10:56:03.535Z,86.47
2023-02-04T10:58:33.651Z,86.88
2023-02-04T11:01:02.773Z,85.23
2023-02-04T11:03:40.521Z,85.35
2023-02-04T11:06:24.488Z,84.81
2023-02-04T11:08:54.660Z,84.99
2023-02-04T11:11:26.243Z,84.77
2023-02-04T11:14:04.312Z,82.90
2023-02-04T11:16:35.615Z,84.36
2023-02-04T11:19:06.791Z,82.82
2023-02-04T11:21:45.661Z,82.23
2023-02-04T11:24:26.468Z,81.43
2023-02-04T11:27:08.975Z,80.19
2023-02-04T11:29:39.584Z,79.32
2023-02-04T11:32:27.884Z,80.32
2023-02-04T11:34:57.382Z,79.40
2023-02-04T11:37:40.597Z,80.53
2023-02-04T11:40:28.497Z,81.09
2023-02-04T11:43:02.814Z,78.51
2023-02-04T11:45:37.975Z,76.63
2023-02-04T11:48:14.929Z,76.33
2023-02-04T11:50:45.153Z,76.00
2023-02-04T11:53:13.653Z,75.88
2023-02-04T11:55:47.863Z,77.34
2023-02-04T11:58:19.943Z,78.40
2023-02-04T12:00:49.650Z,77.83
2023-02-04T12:03:26.928Z,77.31
2023-02-04T12:05:56.118Z,78.33
2023-02-04T12:08:33.641Z,78.51
2023-02-04T12:11:07.524Z,76.36
2023-02-04T12:13:49.580Z,75.83
2023-02-04T12:16:19.683Z,76.62
2023-02-04T12:18:48.270Z,76.88
2023-02-04T12:21:16.774Z,76.69
2023-02-04T12:23:44.908Z,76.81
2023-02-04T12:26:13.921Z,77.04
2023-02-04T12:28:42.215Z,75.68
2023-02-04T12:31:10.555Z,74.58
2023-02-04T12:33:40.809Z,75.30
2023-02-04T12:36:10.052Z,75.80
2023-02-04T12:38:38.383Z,75.08
2023-02-04T12:41:06.657Z,75.73
2023-02-04T12:43:34.938Z,75.44
2023-02-04T12:46:03.184Z,73.68
2023-02-04T12:48:33.048Z,74.40
2023-02-04T12:51:03.096Z,74.80
2023-02-04T12:53:31.673Z,74.79
2023-02-04T12:56:04.847Z,73.37
2023-02-04T12:58:33.052Z,72.33
2023-02-04T13:01:03.907Z,73.75
2023-02-04T13:03:36.374Z,73.51
2023-02-04T13:06:12.256Z,73.14
2023-02-04T13:08:40.526Z,71.99
2023-02-04T13:11:08.718Z,72.56
2023-02-04T13:13:36.988Z,71.60
2023-02-04T13:16:05.683Z,72.98
2023-02-04T13:18:34.565Z,70.06
2023-02-04T13:21:02.834Z,71.93
2023-02-04T13:23:32.712Z,71.84
2023-02-04T13:26:01.129Z,72.26
2023-02-04T13:28:29.400Z,71.14
2023-02-04T13:30:57.759Z,70.89
2023-02-04T13:33:26.007Z,71.28
2023-02-04T13:35:54.404Z,70.87
2023-02-04T13:38:22.644Z,71.54
2023-02-04T13:40:52.290Z,71.50
2023-02-04T13:43:20.519Z,71.87
2023-02-04T13:45:49.093Z,70.49
2023-02-04T13:48:17.649Z,70.72
2023-02-04T13:50:46.167Z,70.29
2023-02-04T13:53:14.370Z,72.20
2023-02-04T13:55:42.567Z,73.17
2023-02-04T13:58:12.152Z,73.37
2023-02-04T14:00:40.425Z,74.42
2023-02-04T14:03:08.692Z,74.46
2023-02-04T14:05:36.970Z,73.34
2023-02-04T14:08:05.396Z,72.04
2023-02-04T14:10:33.968Z,71.43
2023-02-04T14:13:02.634Z,72.25
2023-02-04T14:15:34.666Z,71.94
2023-02-04T14:18:04.582Z,71.67
2023-02-04T14:20:33.035Z,70.94
2023-02-04T14:23:01.619Z,71.28
2023-02-04T14:25:29.848Z,71.59
2023-02-04T14:28:00.171Z,71.28
2023-02-04T14:30:32.210Z,71.04
2023-02-04T14:33:01.479Z,69.24
2023-02-04T14:35:29.804Z,69.56
2023-02-04T14:37:58.840Z,70.19
2023-02-04T14:40:27.047Z,69.41
2023-02-04T14:42:55.535Z,69.50
2023-02-04T14:45:23.740Z,69.37
2023-02-04T14:47:56.959Z,68.97
2023-02-04T14:50:27.177Z,69.45
2023-02-04T14:52:56.952Z,68.52
2023-02-04T14:55:25.317Z,69.07
2023-02-04T14:57:54.109Z,67.92
2023-02-04T15:00:22.947Z,67.05
2023-02-04T15:02:52.588Z,66.50
2023-02-04T15:05:20.957Z,64.56
2023-02-04T15:07:49.188Z,64.09
2023-02-04T15:10:17.760Z,63.03
2023-02-04T15:12:46.130Z,63.72
2023-02-04T15:15:14.328Z,64.25
2023-02-04T15:17:42.549Z,64.07
2023-02-04T15:20:13.282Z,63.93
2023-02-04T15:22:41.513Z,64.22
2023-02-04T15:25:11.161Z,65.20
2023-02-04T15:27:39.512Z,65.54
2023-02-04T15:30:08.323Z,65.18
2023-02-04T15:32:37.370Z,67.02
2023-02-04T15:35:08.219Z,67.70
2023-02-04T15:37:37.747Z,67.85
2023-02-04T15:40:08.676Z,68.38
2023-02-04T15:42:37.202Z,67.16
2023-02-04T15:45:06.547Z,67.70
2023-02-04T15:47:34.754Z,68.34
2023-02-04T15:50:04.025Z,68.68
2023-02-04T15:52:32.403Z,68.60
2023-02-04T15:55:01.955Z,68.66
2023-02-04T15:57:30.208Z,69.10
2023-02-04T15:59:58.998Z,69.56
2023-02-04T16:02:27.299Z,70.09
2023-02-04T16:04:55.532Z,70.06
2023-02-04T16:07:23.817Z,70.05
2023-02-04T16:09:52.813Z,70.70
2023-02-04T16:12:22.397Z,70.76
2023-02-04T16:14:50.956Z,71.50
2023-02-04T16:17:19.253Z,71.37
2023-02-04T16:19:47.478Z,71.12
2023-02-04T16:22:15.772Z,72.17
2023-02-04T16:24:44.758Z,72.58
2023-02-04T16:27:13.015Z,73.26
2023-02-04T16:29:42.551Z,72.96
2023-02-04T16:32:10.815Z,72.91
2023-02-04T16:34:39.017Z,73.10
2023-02-04T16:37:07.361Z,73.29
2023-02-04T16:39:36.864Z,75.11
2023-02-04T16:42:06.414Z,74.24
2023-02-04T16:44:34.717Z,74.44
2023-02-04T16:47:04.420Z,75.05
2023-02-04T16:49:32.760Z,74.85
2023-02-04T16:52:01.573Z,75.23
2023-02-04T16:54:30.041Z,75.56
2023-02-04T16:57:00.241Z,75.84
2023-02-04T16:59:29.314Z,75.78
2023-02-04T17:02:00.554Z,75.98
2023-02-04T17:04:32.803Z,77.00
2023-02-04T17:07:31.111Z,77.64
2023-02-04T17:09:59.254Z,79.31
2023-02-04T17:12:27.489Z,78.64
2023-02-04T17:14:56.042Z,78.96
2023-02-04T17:17:24.293Z,79.94
2023-02-04T17:19:53.827Z,79.55
2023-02-04T17:22:22.085Z,79.64
2023-02-04T17:24:51.891Z,77.61
2023-02-04T17:27:20.684Z,78.48
2023-02-04T17:29:51.069Z,77.82
2023-02-04T17:32:19.444Z,77.53
2023-02-04T17:34:47.622Z,77.38
2023-02-04T17:37:17.183Z,79.20
2023-02-04T17:39:45.366Z,79.47
2023-02-04T17:42:13.563Z,78.66
2023-02-04T17:44:41.770Z,79.29
2023-02-04T17:47:10.037Z,80.51
2023-02-04T17:49:38.386Z,80.30
2023-02-04T17:52:06.629Z,81.55
2023-02-04T17:54:36.514Z,80.49
2023-02-04T17:57:19.022Z,80.32
2023-02-04T17:59:48.121Z,81.05
2023-02-04T18:02:26.745Z,79.36
2023-02-04T18:04:57.348Z,80.31
2023-02-04T18:07:26.391Z,80.25
2023-02-04T18:10:11.366Z,80.44
2023-02-04T18:12:39.576Z,80.60
2023-02-04T18:15:29.247Z,80.34
2023-02-04T18:18:02.576Z,80.68
2023-02-04T18:20:31.072Z,80.69
2023-02-04T18:23:04.416Z,82.18
2023-02-04T18:25:34.688Z,82.13
2023-02-04T18:28:11.079Z,82.64
2023-02-04T18:30:39.597Z,83.29
2023-02-04T18:33:16.983Z,81.97
2023-02-04T18:35:48.166Z,84.03
2023-02-04T18:38:24.810Z,83.74
2023-02-04T18:41:02.572Z,83.43
2023-02-04T18:43:37.593Z,83.34
2023-02-04T18:46:24.544Z,83.32
2023-02-04T18:49:06.496Z,83.75
2023-02-04T18:51:40.192Z,83.08
2023-02-04T18:54:35.660Z,83.74
2023-02-04T18:57:35.841Z,84.29
2023-02-04T19:00:34.451Z,84.34
2023-02-04T19:03:26.096Z,84.93
2023-02-04T19:05:57.598Z,85.15
2023-02-04T19:08:29.660Z,84.50
2023-02-04T19:11:01.152Z,84.84
2023-02-04T19:13:39.968Z,83.66
2023-02-04T19:16:23.326Z,83.85
2023-02-04T19:18:52.398Z,82.85
2023-02-04T19:21:28.794Z,82.48
2023-02-04T19:24:06.160Z,83.01
2023-02-04T19:26:37.032Z,82.95
2023-02-04T19:29:41.253Z,83.74
2023-02-04T19:32:28.860Z,84.23
2023-02-04T19:35:02.153Z,83.79
2023-02-04T19:37:57.495Z,83.33
2023-02-04T19:40:31.773Z,82.98
2023-02-04T19:43:20.563Z,84.29
2023-02-04T19:45:51.637Z,84.39
2023-02-04T19:48:26.236Z,84.52
2023-02-04T19:50:54.716Z,85.47
2023-02-04T19:53:27.958Z,86.42
2023-02-04T19:55:56.742Z,85.96
2023-02-04T19:58:29.342Z,85.01
2023-02-04T20:01:03.909Z,84.93
2023-02-04T20:03:43.087Z,84.45
2023-02-04T20:06:31.713Z,84.77
2023-02-04T20:09:03.664Z,84.22
2023-02-04T20:11:56.159Z,84.47
2023-02-04T20:14:41.898Z,84.64
2023-02-04T20:17:35.885Z,84.73
2023-02-04T20:20:26.415Z,84.80
2023-02-04T20:22:57.001Z,85.44
2023-02-04T20:25:48.011Z,85.53
2023-02-04T20:28:26.662Z,85.10
2023-02-04T20:30:57.958Z,85.42
2023-02-04T20:33:35.060Z,85.47
2023-02-04T20:36:38.506Z,85.22
2023-02-04T20:39:40.166Z,85.90
2023-02-04T20:42:42.745Z,85.79
2023-02-04T20:45:26.326Z,85.74
2023-02-04T20:47:58.254Z,86.00
2023-02-04T20:50:41.606Z,85.75
2023-02-04T20:53:24.507Z,85.85
2023-02-04T20:55:56.317Z,85.73
2023-02-04T20:58:28.716Z,85.89
2023-02-04T21:00:57.316Z,85.84
2023-02-04T21:03:29.791Z,86.17
2023-02-04T21:06:01.153Z,86.34
2023-02-04T21:08:45.269Z,85.86
2023-02-04T21:11:13.657Z,85.31
2023-02-04T21:13:42.033Z,85.72
2023-02-04T21:16:10.847Z,86.79
2023-02-04T21:18:39.789Z,85.88
2023-02-04T21:21:10.793Z,86.17
2023-02-04T21:23:39.307Z,85.71
2023-02-04T21:26:08.269Z,85.65
2023-02-04T21:28:36.629Z,85.91
2023-02-04T21:31:05.454Z,85.76
2023-02-04T21:33:33.799Z,85.22
2023-02-04T21:36:02.019Z,85.24
2023-02-04T21:38:31.639Z,84.96
2023-02-04T21:40:59.823Z,85.35
2023-02-04T21:43:28.013Z,84.66
2023-02-04T21:45:56.233Z,85.72
2023-02-04T21:48:25.577Z,86.36
2023-02-04T21:50:53.987Z,86.44
2023-02-04T21:53:22.262Z,86.75
2023-02-04T21:55:51.794Z,86.50
2023-02-04T21:58:19.929Z,86.82
2023-02-04T22:00:48.078Z,87.37
2023-02-04T22:03:17.404Z,86.94
2023-02-04T22:05:46.407Z,87.68
2023-02-04T22:08:14.561Z,87.36
2023-02-04T22:10:42.913Z,87.74
2023-02-04T22:13:30.009Z,86.60
2023-02-04T22:15:58.237Z,85.54
2023-02-04T22:18:26.500Z,85.98
2023-02-04T22:20:54.726Z,86.99
2023-02-04T22:23:22.990Z,86.75
2023-02-04T22:25:51.188Z,86.72
2023-02-04T22:28:20.788Z,86.87
2023-02-04T22:30:49.150Z,87.06
2023-02-04T22:33:17.382Z,87.39
2023-02-04T22:35:46.016Z,88.03
2023-02-04T22:38:14.200Z,87.04
2023-02-04T22:40:42.406Z,88.16
2023-02-04T22:43:10.646Z,88.59
2023-02-04T22:45:40.180Z,87.81
2023-02-04T22:48:08.384Z,87.85
2023-02-04T22:50:36.582Z,88.87
2023-02-04T22:53:04.935Z,88.75
2023-02-04T22:55:33.437Z,89.06
2023-02-04T22:58:01.858Z,88.05
2023-02-04T23:00:30.126Z,87.91
2023-02-04T23:05:55.544Z,88.81
2023-02-04T23:08:24.069Z,88.58
2023-02-04T23:10:52.340Z,89.14
2023-02-04T23:13:20.881Z,87.81
2023-02-04T23:15:49.168Z,87.06
2023-02-04T23:18:18.744Z,89.05
2023-02-04T23:20:47.003Z,88.41
2023-02-04T23:23:17.585Z,87.17
2023-02-04T23:25:46.688Z,87.57
2023-02-04T23:28:15.371Z,86.54
2023-02-04T23:30:43.892Z,85.93
2023-02-04T23:33:12.201Z,86.67
2023-02-04T23:35:41.773Z,87.02
2023-02-04T23:38:11.096Z,86.13
2023-02-04T23:40:39.295Z,86.14
2023-02-04T23:43:08.845Z,85.99
2023-02-04T23:45:38.816Z,87.16
2023-02-04T23:48:08.004Z,87.07
2023-02-04T23:50:36.195Z,87.50
2023-02-04T23:53:05.817Z,86.74
2023-02-04T23:55:34.437Z,88.39
2023-02-04T23:58:02.914Z,87.31
